Date,TemperatureHighF,TemperatureAvgF,TemperatureLowF,DewpointHighF,DewpointAvgF,DewpointLowF,HumidityHigh,HumidityAvg,HumidityLow,PressureMaxIn,PressureMinIn,WindSpeedMaxMPH,WindSpeedAvgMPH,GustSpeedMaxMPH,PrecipitationSumIn
2013-9-1,85.6,78.4,72.1,77.9,74.7,71.7,99,89,66,29.83,29.69,10,1,17,0.00
2013-9-2,87.6,76.3,66.0,71.9,68.1,65.0,99,79,49,29.90,29.80,5,1,12,0.00
2013-9-3,89.8,74.2,58.3,73.2,62.9,58.0,99,72,38,29.98,29.88,4,0,8,0.00
2013-9-4,92.8,75.6,57.4,69.7,63.1,57.1,99,69,35,30.06,29.94,4,0,8,0.00
2013-9-5,92.3,75.7,60.4,70.0,64.3,60.2,99,72,37,30.10,29.99,3,0,7,0.00
2013-9-6,90.3,75.8,62.4,71.2,65.7,59.9,99,74,39,30.06,29.92,3,0,8,0.00
2013-9-7,95.2,79.4,64.6,74.6,69.8,64.3,99,76,46,29.95,29.83,4,0,8,0.00
2013-9-8,93.4,79.7,68.7,78.2,73.5,68.5,99,83,55,29.88,29.79,3,0,7,0.00
2013-9-9,98.4,82.9,69.1,75.7,71.0,66.2,99,72,36,29.91,29.82,4,0,11,0.00
2013-9-10,96.6,81.5,68.7,72.9,69.1,63.9,99,70,37,30.01,29.89,4,0,10,0.00
2013-9-11,97.9,82.1,68.2,75.7,71.3,67.9,99,73,41,30.04,29.94,2,0,8,0.00
2013-9-12,96.1,80.0,69.1,76.7,72.3,68.7,99,79,48,29.99,29.90,6,1,12,0.00
2013-9-13,81.0,69.3,59.7,70.4,55.8,52.4,97,64,41,30.02,29.91,5,1,13,0.00
2013-9-14,80.2,67.2,51.6,57.9,54.6,50.5,97,67,40,30.00,29.88,3,0,9,0.00
2013-9-15,88.7,68.8,57.4,68.9,60.0,54.4,90,75,45,29.96,29.89,4,0,10,0.00
2013-9-16,77.4,70.1,66.0,73.6,68.8,65.5,99,96,83,30.08,29.95,4,0,9,0.14
2013-9-17,83.8,71.7,62.8,73.4,68.3,62.5,99,90,66,30.06,29.90,3,1,9,0.90
2013-9-18,86.7,74.6,68.9,77.3,72.8,68.6,99,95,67,29.93,29.83,4,1,11,0.15
2013-9-19,93.4,78.5,71.4,77.4,73.3,71.0,99,86,54,29.89,29.76,4,1,14,0.00
2013-9-20,74.7,65.0,55.0,73.5,63.3,54.8,99,94,66,30.05,29.82,4,0,8,0.64
2013-9-21,75.7,60.8,48.0,58.2,52.1,47.0,99,77,37,30.00,29.90,6,1,14,0.00
2013-9-22,79.5,62.1,45.3,60.0,53.0,45.1,99,76,42,29.99,29.86,4,0,8,0.00
2013-9-23,80.6,65.2,50.5,62.2,57.2,50.3,99,78,47,29.93,29.80,4,1,12,0.00
2013-9-24,84.4,68.9,58.8,65.1,62.1,58.6,99,81,51,29.89,29.80,3,0,8,0.00
2013-9-25,84.0,67.6,54.1,69.5,62.0,53.9,99,85,55,29.87,29.80,4,0,8,0.00
2013-9-26,84.4,70.8,59.0,69.1,64.0,58.7,99,81,54,29.96,29.84,5,1,12,0.00
2013-9-27,86.9,74.2,64.0,72.3,67.1,63.8,99,81,51,30.01,29.91,6,1,13,0.00
2013-9-28,78.3,68.7,60.8,73.0,67.5,60.5,99,96,79,30.03,29.90,4,1,14,0.44
2013-9-29,79.0,64.4,54.9,64.4,58.2,54.3,99,83,50,30.05,29.92,5,1,12,0.02
2013-9-30,79.0,67.4,56.3,72.1,65.3,56.0,99,93,72,29.94,29.84,4,1,10,0.00